createdAt,value
2022-11-05T00:00:39.921Z,53.23
2022-11-05T00:03:34.445Z,52.40
2022-11-05T00:06:20.375Z,56.80
2022-11-05T00:09:05.776Z,52.90
2022-11-05T00:11:52.891Z,54.50
2022-11-05T00:14:38.571Z,59.97
2022-11-05T00:17:06.787Z,60.80
2022-11-05T00:19:37.522Z,60.50
2022-11-05T00:22:23.155Z,65.33
2022-11-05T00:25:11.840Z,55.73
2022-11-05T00:27:41.506Z,63.10
2022-11-05T00:30:13.998Z,73.90
2022-11-05T00:32:42.250Z,110.13
2022-11-05T00:35:11.089Z,90.43
2022-11-05T00:37:39.505Z,60.17
2022-11-05T00:40:09.485Z,58.23
2022-11-05T00:43:01.094Z,53.43
2022-11-05T00:45:29.700Z,54.73
2022-11-05T00:48:16.047Z,51.13
2022-11-05T00:50:44.444Z,51.77
2022-11-05T00:53:12.855Z,51.43
2022-11-05T00:55:42.979Z,49.33
2022-11-05T00:58:14.527Z,49.23
2022-11-05T01:00:45.081Z,49.63
2022-11-05T01:03:15.351Z,49.57
2022-11-05T01:05:48.029Z,48.97
2022-11-05T01:08:17.895Z,48.77
2022-11-05T01:10:50.970Z,48.90
2022-11-05T01:13:22.329Z,48.40
2022-11-05T01:15:53.714Z,48.43
2022-11-05T01:18:23.480Z,48.57
2022-11-05T01:20:52.180Z,50.40
2022-11-05T01:23:20.931Z,50.87
2022-11-05T01:25:49.546Z,51.50
2022-11-05T01:28:17.944Z,49.77
2022-11-05T01:30:55.882Z,50.47
2022-11-05T01:33:24.921Z,52.07
2022-11-05T01:35:55.446Z,52.10
2022-11-05T01:38:23.773Z,51.77
2022-11-05T01:40:52.212Z,51.23
2022-11-05T01:43:24.753Z,52.67
2022-11-05T01:45:57.893Z,53.50
2022-11-05T01:48:30.241Z,53.30
2022-11-05T01:51:03.361Z,53.47
2022-11-05T01:53:37.705Z,50.90
2022-11-05T01:56:09.538Z,52.77
2022-11-05T01:58:42.264Z,51.93
2022-11-05T02:01:13.125Z,55.93
2022-11-05T02:03:42.442Z,56.13
2022-11-05T02:06:10.913Z,54.93
2022-11-05T02:08:51.973Z,54.13
2022-11-05T02:11:20.878Z,54.43
2022-11-05T02:13:49.725Z,52.33
2022-11-05T02:16:30.937Z,48.93
2022-11-05T02:19:14.300Z,53.33
2022-11-05T02:21:59.254Z,53.83
2022-11-05T02:24:52.910Z,53.20
2022-11-05T02:27:29.542Z,53.30
2022-11-05T02:30:36.162Z,52.50
2022-11-05T02:33:19.130Z,52.70
2022-11-05T02:36:07.686Z,53.03
2022-11-05T02:38:41.746Z,51.70
2022-11-05T02:41:19.649Z,53.40
2022-11-05T02:44:00.427Z,51.10
2022-11-05T02:46:35.352Z,52.43
2022-11-05T02:49:14.637Z,50.77
2022-11-05T02:51:49.294Z,54.00
2022-11-05T02:54:22.125Z,55.60
2022-11-05T02:56:54.008Z,55.00
2022-11-05T02:59:22.252Z,53.70
2022-11-05T03:01:54.215Z,53.37
2022-11-05T03:04:27.604Z,56.90
2022-11-05T03:07:12.563Z,54.47
2022-11-05T03:10:01.417Z,53.60
2022-11-05T03:12:37.172Z,55.10
2022-11-05T03:15:17.397Z,54.80
2022-11-05T03:18:00.232Z,54.23
2022-11-05T03:20:36.916Z,55.60
2022-11-05T03:23:13.637Z,54.87
2022-11-05T03:25:46.163Z,56.87
2022-11-05T03:28:16.051Z,58.27
2022-11-05T03:30:47.195Z,58.53
2022-11-05T03:33:21.914Z,60.50
2022-11-05T03:35:55.346Z,59.90
2022-11-05T03:38:27.014Z,62.53
2022-11-05T03:40:58.661Z,61.70
2022-11-05T03:43:32.135Z,61.57
2022-11-05T03:46:05.420Z,62.97
2022-11-05T03:48:37.775Z,60.53
2022-11-05T03:51:13.828Z,62.03
2022-11-05T03:53:48.311Z,60.60
2022-11-05T03:56:21.851Z,57.43
2022-11-05T03:58:58.488Z,58.73
2022-11-05T04:01:27.982Z,58.17
2022-11-05T04:03:56.284Z,59.03
2022-11-05T04:06:43.495Z,57.40
2022-11-05T04:09:29.285Z,55.70
2022-11-05T04:12:14.910Z,54.90
2022-11-05T04:14:43.218Z,54.33
2022-11-05T04:17:10.537Z,55.50
2022-11-05T04:19:58.470Z,56.50
2022-11-05T04:22:47.046Z,53.80
2022-11-05T04:25:16.630Z,53.23
2022-11-05T04:27:45.207Z,54.13
2022-11-05T04:30:19.296Z,54.57
2022-11-05T04:33:01.880Z,53.10
2022-11-05T04:35:31.605Z,51.60
2022-11-05T04:38:05.107Z,50.20
2022-11-05T04:40:33.744Z,51.87
2022-11-05T04:43:04.877Z,50.30
2022-11-05T04:45:35.515Z,50.23
2022-11-05T04:48:05.648Z,51.63
2022-11-05T04:50:34.095Z,49.87
2022-11-05T04:53:03.782Z,48.37
2022-11-05T04:55:32.077Z,48.43
2022-11-05T04:58:00.348Z,49.80
2022-11-05T05:00:28.629Z,46.80
2022-11-05T05:02:57.000Z,46.97
2022-11-05T05:05:25.259Z,46.53
2022-11-05T05:07:53.507Z,47.33
2022-11-05T05:10:23.164Z,47.80
2022-11-05T05:12:51.378Z,48.03
2022-11-05T05:15:19.788Z,48.23
2022-11-05T05:17:52.416Z,48.73
2022-11-05T05:20:38.777Z,46.70
2022-11-05T05:23:07.158Z,47.17
2022-11-05T05:25:36.755Z,46.87
2022-11-05T05:28:05.036Z,45.97
2022-11-05T05:30:33.374Z,46.87
2022-11-05T05:33:03.890Z,45.03
2022-11-05T05:35:32.323Z,46.73
2022-11-05T05:38:00.806Z,46.63
2022-11-05T05:40:31.423Z,45.37
2022-11-05T05:43:04.024Z,46.93
2022-11-05T05:45:32.223Z,45.17
2022-11-05T05:48:03.961Z,45.87
2022-11-05T05:50:32.184Z,45.20
2022-11-05T05:53:03.059Z,46.23
2022-11-05T05:55:31.339Z,50.17
2022-11-05T05:58:04.055Z,47.47
2022-11-05T06:00:32.398Z,47.23
2022-11-05T06:03:00.709Z,46.90
2022-11-05T06:05:29.098Z,48.67
2022-11-05T06:07:58.078Z,50.17
2022-11-05T06:10:29.178Z,51.20
2022-11-05T06:12:57.661Z,49.67
2022-11-05T06:15:31.741Z,52.93
2022-11-05T06:18:03.028Z,51.87
2022-11-05T06:20:31.239Z,51.07
2022-11-05T06:22:59.658Z,50.77
2022-11-05T06:25:28.225Z,53.77
2022-11-05T06:27:56.544Z,52.70
2022-11-05T06:30:26.227Z,52.10
2022-11-05T06:32:54.585Z,54.03
2022-11-05T06:35:22.868Z,53.43
2022-11-05T06:37:51.166Z,53.70
2022-11-05T06:40:19.457Z,52.57
2022-11-05T06:42:47.933Z,56.30
2022-11-05T06:45:16.335Z,68.03
2022-11-05T06:47:46.018Z,70.83
2022-11-05T06:50:14.305Z,55.87
2022-11-05T06:52:42.682Z,57.03
2022-11-05T06:55:10.989Z,57.37
2022-11-05T06:57:39.805Z,53.47
2022-11-05T07:00:09.993Z,56.30
2022-11-05T07:02:38.269Z,51.60
2022-11-05T07:05:12.143Z,67.07
2022-11-05T07:07:40.651Z,69.57
2022-11-05T07:10:12.157Z,56.27
2022-11-05T07:12:40.447Z,72.27
2022-11-05T07:15:10.262Z,55.33
2022-11-05T07:17:39.077Z,76.40
2022-11-05T07:20:11.967Z,81.50
2022-11-05T07:22:40.197Z,82.53
2022-11-05T07:25:09.355Z,62.67
2022-11-05T07:27:40.898Z,58.87
2022-11-05T07:30:10.805Z,60.33
2022-11-05T07:32:39.759Z,58.10
2022-11-05T07:35:10.991Z,57.73
2022-11-05T07:37:45.769Z,55.77
2022-11-05T07:40:15.613Z,49.97
2022-11-05T07:42:44.559Z,52.97
2022-11-05T07:45:13.868Z,59.97
2022-11-05T07:47:47.917Z,52.43
2022-11-05T07:50:18.716Z,55.00
2022-11-05T07:52:48.066Z,48.77
2022-11-05T07:55:16.796Z,46.93
2022-11-05T07:57:46.104Z,44.70
2022-11-05T08:00:17.822Z,42.00
2022-11-05T08:02:46.361Z,40.10
2022-11-05T08:05:14.978Z,42.37
2022-11-05T08:07:44.606Z,43.53
2022-11-05T08:10:12.875Z,46.13
2022-11-05T08:12:41.157Z,42.63
2022-11-05T08:15:11.474Z,41.47
2022-11-05T08:17:42.112Z,42.40
2022-11-05T08:20:12.011Z,40.27
2022-11-05T08:22:45.167Z,39.13
2022-11-05T08:25:14.167Z,39.20
2022-11-05T08:27:42.503Z,41.33
2022-11-05T08:30:11.722Z,40.47
2022-11-05T08:32:40.000Z,41.00
2022-11-05T08:35:09.038Z,39.77
2022-11-05T08:37:37.401Z,40.27
2022-11-05T08:40:08.486Z,37.45
2022-11-05T08:42:36.771Z,37.53
2022-11-05T08:45:05.739Z,35.90
2022-11-05T08:47:34.072Z,34.33
2022-11-05T08:50:02.291Z,33.33
2022-11-05T08:52:30.586Z,33.07
2022-11-05T08:54:58.806Z,35.30
2022-11-05T08:57:28.517Z,31.43
2022-11-05T08:59:56.726Z,31.77
2022-11-05T09:02:25.520Z,29.60
2022-11-05T09:04:53.921Z,29.00
2022-11-05T09:07:23.112Z,30.23
2022-11-05T09:09:51.375Z,29.03
2022-11-05T09:12:19.664Z,27.93
2022-11-05T09:14:49.408Z,28.57
2022-11-05T09:17:19.858Z,27.80
2022-11-05T09:19:48.368Z,28.33
2022-11-05T09:22:16.679Z,27.90
2022-11-05T09:24:45.069Z,29.07
2022-11-05T09:27:14.731Z,28.03
2022-11-05T09:29:43.247Z,28.20
2022-11-05T09:32:13.208Z,26.47
2022-11-05T09:34:44.434Z,25.57
2022-11-05T09:37:13.042Z,23.00
2022-11-05T09:39:41.372Z,24.07
2022-11-05T09:42:11.180Z,22.63
2022-11-05T09:44:45.045Z,21.73
2022-11-05T09:47:18.977Z,20.87
2022-11-05T09:49:50.347Z,20.57
2022-11-05T09:52:22.812Z,19.97
2022-11-05T09:54:51.570Z,20.00
2022-11-05T09:57:25.541Z,17.83
2022-11-05T09:59:56.477Z,19.08
2022-11-05T10:02:30.417Z,17.50
2022-11-05T10:05:09.919Z,17.23
2022-11-05T10:07:44.716Z,15.95
2022-11-05T10:10:27.959Z,17.60
2022-11-05T10:13:00.682Z,14.40
2022-11-05T10:15:32.558Z,16.42
2022-11-05T10:18:07.247Z,15.15
2022-11-05T10:20:38.204Z,14.68
2022-11-05T10:23:13.122Z,15.88
2022-11-05T10:25:44.858Z,15.15
2022-11-05T10:28:18.860Z,16.27
2022-11-05T10:30:48.855Z,15.27
2022-11-05T10:33:29.051Z,14.63
2022-11-05T10:36:02.262Z,14.90
2022-11-05T10:38:30.833Z,13.85
2022-11-05T10:41:10.630Z,13.13
2022-11-05T10:43:43.443Z,13.18
2022-11-05T10:46:25.722Z,12.73
2022-11-05T10:49:12.104Z,12.38
2022-11-05T10:51:40.697Z,13.63
2022-11-05T10:54:17.026Z,11.95
2022-11-05T10:56:45.575Z,13.35
2022-11-05T10:59:25.160Z,12.93
2022-11-05T11:02:02.623Z,11.55
2022-11-05T11:04:37.661Z,11.45
2022-11-05T11:07:07.189Z,11.07
2022-11-05T11:09:37.647Z,10.25
2022-11-05T11:12:13.095Z,9.77
2022-11-05T11:14:41.534Z,10.02
2022-11-05T11:17:27.858Z,8.85
2022-11-05T11:20:26.024Z,7.75
2022-11-05T11:23:03.104Z,7.57
2022-11-05T11:25:41.222Z,6.40
2022-11-05T11:28:18.968Z,6.25
2022-11-05T11:30:52.989Z,5.35
2022-11-05T11:33:27.802Z,4.80
2022-11-05T11:35:57.953Z,4.30
2022-11-05T11:38:30.391Z,4.20
2022-11-05T11:41:04.590Z,3.92
2022-11-05T11:43:36.205Z,3.50
2022-11-05T11:46:15.829Z,2.55
2022-11-05T11:48:47.593Z,3.90
2022-11-05T11:51:31.180Z,2.95
2022-11-05T11:54:01.121Z,2.53
2022-11-05T11:56:30.454Z,2.53
2022-11-05T11:59:02.743Z,2.55
2022-11-05T12:01:58.820Z,2.33
2022-11-05T12:04:48.455Z,2.67
2022-11-05T12:07:37.349Z,3.08
2022-11-05T12:10:31.381Z,2.80
2022-11-05T12:13:28.321Z,2.97
2022-11-05T12:16:01.803Z,2.97
2022-11-05T12:18:41.775Z,2.85
2022-11-05T12:21:29.499Z,2.88
2022-11-05T12:24:44.190Z,3.25
2022-11-05T12:27:25.397Z,2.90
2022-11-05T12:30:01.288Z,2.55
2022-11-05T12:33:00.154Z,3.30
2022-11-05T12:35:47.435Z,2.70
2022-11-05T12:38:32.878Z,2.80
2022-11-05T12:41:13.066Z,2.58
2022-11-05T12:43:54.619Z,3.05
2022-11-05T12:46:29.502Z,3.10
2022-11-05T12:49:23.462Z,3.53
2022-11-05T12:52:06.221Z,2.25
2022-11-05T12:54:48.320Z,3.10
2022-11-05T12:57:18.978Z,2.88
2022-11-05T12:59:53.048Z,3.78
2022-11-05T13:02:26.820Z,2.35
2022-11-05T13:05:00.420Z,2.95
2022-11-05T13:07:32.987Z,2.55
2022-11-05T13:10:06.965Z,2.35
2022-11-05T13:12:40.295Z,2.50
2022-11-05T13:15:19.835Z,3.53
2022-11-05T13:17:54.699Z,3.42
2022-11-05T13:20:26.579Z,3.20
2022-11-05T13:23:00.005Z,3.00
2022-11-05T13:25:31.091Z,2.85
2022-11-05T13:28:07.894Z,3.20
2022-11-05T13:30:41.570Z,3.17
2022-11-05T13:33:14.741Z,3.75
2022-11-05T13:35:49.466Z,3.03
2022-11-05T13:38:42.030Z,2.75
2022-11-05T13:41:36.175Z,3.20
2022-11-05T13:44:26.442Z,4.43
2022-11-05T13:47:18.013Z,4.20
2022-11-05T13:50:02.549Z,4.40
2022-11-05T13:52:49.044Z,4.53
2022-11-05T13:55:42.908Z,4.90
2022-11-05T13:58:28.719Z,4.10
2022-11-05T14:01:08.554Z,3.97
2022-11-05T14:03:37.716Z,4.80
2022-11-05T14:06:08.110Z,3.75
2022-11-05T14:08:41.613Z,4.70
2022-11-05T14:11:22.956Z,4.55
2022-11-05T14:13:55.710Z,4.60
2022-11-05T14:16:27.849Z,5.00
2022-11-05T14:19:29.766Z,4.50
2022-11-05T14:21:58.791Z,5.18
2022-11-05T14:24:43.137Z,5.68
2022-11-05T14:27:34.243Z,5.90
2022-11-05T14:30:03.309Z,5.75
2022-11-05T14:32:50.104Z,5.72
2022-11-05T14:35:38.716Z,5.07
2022-11-05T14:38:18.753Z,5.25
2022-11-05T14:40:48.158Z,4.85
2022-11-05T14:43:22.847Z,5.20
2022-11-05T14:45:56.568Z,6.18
2022-11-05T14:48:37.553Z,4.90
2022-11-05T14:51:28.314Z,4.78
2022-11-05T14:54:04.326Z,5.53
2022-11-05T14:56:44.306Z,4.75
2022-11-05T14:59:52.549Z,4.85
2022-11-05T15:02:25.061Z,5.03
2022-11-05T15:05:40.341Z,4.30
2022-11-05T15:08:37.212Z,4.40
2022-11-05T15:11:14.349Z,3.78
2022-11-05T15:13:52.360Z,5.00
2022-11-05T15:16:25.728Z,4.03
2022-11-05T15:18:55.584Z,3.85
2022-11-05T15:21:26.462Z,4.22
2022-11-05T15:23:57.690Z,4.03
2022-11-05T15:26:34.745Z,4.10
2022-11-05T15:29:03.109Z,3.90
2022-11-05T15:31:37.363Z,3.70
2022-11-05T15:34:19.013Z,4.05
2022-11-05T15:36:56.762Z,3.88
2022-11-05T15:39:32.257Z,3.83
2022-11-05T15:42:05.705Z,3.88
2022-11-05T15:44:39.109Z,3.83
2022-11-05T15:47:17.010Z,3.90
2022-11-05T15:49:46.707Z,2.78
2022-11-05T15:52:18.326Z,3.33
2022-11-05T15:54:47.010Z,3.20
2022-11-05T15:57:21.980Z,3.20
2022-11-05T15:59:50.626Z,2.80
2022-11-05T16:02:33.024Z,2.53
2022-11-05T16:05:06.711Z,3.03
2022-11-05T16:07:36.654Z,3.03
2022-11-05T16:10:08.638Z,3.10
2022-11-05T16:12:41.048Z,3.28
2022-11-05T16:15:24.277Z,2.80
2022-11-05T16:17:56.117Z,2.83
2022-11-05T16:20:30.785Z,3.22
2022-11-05T16:23:02.671Z,2.35
2022-11-05T16:25:39.042Z,2.55
2022-11-05T16:28:21.095Z,2.85
2022-11-05T16:31:00.197Z,1.85
2022-11-05T16:33:34.075Z,2.85
2022-11-05T16:36:02.419Z,3.00
2022-11-05T16:38:32.091Z,2.60
2022-11-05T16:41:00.494Z,2.47
2022-11-05T16:43:28.816Z,2.20
2022-11-05T16:46:01.991Z,2.50
2022-11-05T16:48:30.377Z,1.98
2022-11-05T16:50:58.669Z,2.35
2022-11-05T16:53:26.936Z,2.10
2022-11-05T16:55:56.639Z,2.22
2022-11-05T16:58:27.251Z,1.55
2022-11-05T17:01:03.060Z,2.15
2022-11-05T17:03:31.586Z,2.15
2022-11-05T17:05:59.837Z,1.88
2022-11-05T17:08:28.297Z,1.90
2022-11-05T17:11:00.326Z,1.98
2022-11-05T17:13:29.362Z,1.63
2022-11-05T17:15:57.749Z,2.03
2022-11-05T17:18:26.588Z,1.45
2022-11-05T17:20:56.591Z,1.67
2022-11-05T17:23:27.815Z,2.45
2022-11-05T17:26:01.052Z,1.73
2022-11-05T17:28:31.257Z,1.73
2022-11-05T17:31:00.462Z,1.70
2022-11-05T17:33:29.161Z,1.20
2022-11-05T17:35:57.740Z,1.33
2022-11-05T17:38:27.592Z,2.00
2022-11-05T17:40:55.919Z,1.63
2022-11-05T17:43:24.302Z,2.65
2022-11-05T17:45:55.179Z,1.70
2022-11-05T17:48:25.956Z,1.65
2022-11-05T17:50:54.228Z,3.55
2022-11-05T17:53:22.663Z,1.40
2022-11-05T17:55:50.963Z,2.08
2022-11-05T17:58:19.242Z,1.35
2022-11-05T18:00:48.502Z,1.70
2022-11-05T18:03:18.282Z,1.80
2022-11-05T18:05:46.709Z,2.17
2022-11-05T18:08:14.984Z,1.67
2022-11-05T18:10:43.929Z,2.35
2022-11-05T18:13:12.996Z,1.75
2022-11-05T18:15:42.118Z,1.60
2022-11-05T18:18:10.859Z,1.50
2022-11-05T18:20:40.609Z,1.60
2022-11-05T18:23:09.239Z,2.15
2022-11-05T18:25:37.616Z,1.42
2022-11-05T18:28:06.183Z,1.52
2022-11-05T18:30:35.221Z,1.55
2022-11-05T18:33:03.837Z,1.38
2022-11-05T18:35:32.431Z,1.55
2022-11-05T18:38:02.430Z,1.60
2022-11-05T18:40:30.873Z,1.45
2022-11-05T18:42:59.190Z,1.77
2022-11-05T18:45:29.922Z,1.58
2022-11-05T18:47:58.509Z,1.85
2022-11-05T18:50:27.346Z,1.50
2022-11-05T18:52:55.840Z,1.80
2022-11-05T18:55:25.993Z,2.97
2022-11-05T18:57:54.398Z,2.60
2022-11-05T19:00:22.949Z,1.55
2022-11-05T19:02:51.391Z,1.42
2022-11-05T19:05:29.004Z,1.27
2022-11-05T19:07:58.217Z,1.58
2022-11-05T19:10:28.578Z,1.23
2022-11-05T19:12:56.970Z,1.73
2022-11-05T19:15:25.397Z,1.10
2022-11-05T19:17:53.670Z,1.40
2022-11-05T19:20:22.014Z,2.00
2022-11-05T19:22:50.462Z,1.58
2022-11-05T19:25:19.121Z,1.20
2022-11-05T19:27:48.876Z,1.40
2022-11-05T19:30:17.469Z,1.23
2022-11-05T19:32:45.772Z,1.50
2022-11-05T19:35:14.096Z,1.40
2022-11-05T19:37:42.462Z,1.52
2022-11-05T19:40:12.024Z,1.45
2022-11-05T19:42:40.293Z,1.20
2022-11-05T19:45:30.373Z,1.52
2022-11-05T19:47:59.788Z,1.15
2022-11-05T19:50:28.409Z,1.17
2022-11-05T19:52:56.663Z,0.90
2022-11-05T19:55:25.476Z,0.93
2022-11-05T19:57:53.934Z,1.42
2022-11-05T20:00:23.866Z,1.27
2022-11-05T20:02:52.927Z,0.80
2022-11-05T20:05:21.403Z,1.45
2022-11-05T20:07:53.117Z,1.40
2022-11-05T20:10:23.754Z,1.95
2022-11-05T20:12:52.286Z,1.20
2022-11-05T20:15:20.724Z,1.90
2022-11-05T20:17:55.143Z,1.73
2022-11-05T20:20:23.853Z,1.50
2022-11-05T20:22:53.509Z,1.20
2022-11-05T20:25:21.781Z,3.58
2022-11-05T20:27:50.302Z,3.28
2022-11-05T20:30:18.995Z,1.52
2022-11-05T20:32:47.401Z,20.92
2022-11-05T20:35:17.082Z,1.85
2022-11-05T20:37:49.693Z,1.40
2022-11-05T20:40:21.067Z,2.72
2022-11-05T20:42:49.376Z,2.60
2022-11-05T20:45:17.707Z,1.60
2022-11-05T20:47:46.027Z,2.25
2022-11-05T20:50:14.281Z,1.65
2022-11-05T20:52:43.917Z,1.38
2022-11-05T20:55:12.538Z,1.50
2022-11-05T20:57:40.843Z,1.95
2022-11-05T21:00:10.386Z,2.15
2022-11-05T21:02:39.715Z,1.33
2022-11-05T21:05:09.109Z,1.42
2022-11-05T21:07:39.876Z,1.40
2022-11-05T21:10:10.018Z,1.50
2022-11-05T21:12:38.318Z,1.48
2022-11-05T21:15:07.775Z,1.55
2022-11-05T21:17:37.596Z,1.75
2022-11-05T21:20:06.819Z,2.28
2022-11-05T21:22:35.069Z,1.63
2022-11-05T21:25:03.371Z,2.15
2022-11-05T21:27:33.017Z,1.85
2022-11-05T21:30:01.431Z,2.00
2022-11-05T21:32:29.687Z,1.48
2022-11-05T21:34:59.976Z,2.55
2022-11-05T21:37:28.783Z,1.90
2022-11-05T21:39:56.990Z,2.30
2022-11-05T21:42:25.469Z,2.17
2022-11-05T21:45:00.014Z,2.53
2022-11-05T21:47:29.167Z,1.73
2022-11-05T21:49:57.461Z,2.40
2022-11-05T21:52:43.489Z,1.67
2022-11-05T21:55:36.559Z,2.28
2022-11-05T21:58:29.303Z,1.60
2022-11-05T22:00:59.020Z,2.15
2022-11-05T22:03:27.656Z,2.35
2022-11-05T22:05:57.741Z,1.88
2022-11-05T22:08:26.421Z,1.92
2022-11-05T22:10:54.664Z,1.73
2022-11-05T22:13:23.084Z,2.33
2022-11-05T22:15:58.929Z,2.13
2022-11-05T22:18:27.266Z,2.10
2022-11-05T22:20:55.692Z,2.05
2022-11-05T22:23:23.943Z,2.22
2022-11-05T22:25:59.139Z,1.52
2022-11-05T22:28:27.589Z,2.20
2022-11-05T22:30:55.941Z,2.38
2022-11-05T22:33:25.646Z,2.65
2022-11-05T22:35:53.881Z,1.73
2022-11-05T22:38:22.189Z,2.50
2022-11-05T22:40:50.470Z,2.22
2022-11-05T22:43:18.721Z,1.95
2022-11-05T22:45:46.942Z,2.25
2022-11-05T22:48:15.672Z,1.70
2022-11-05T22:50:48.663Z,1.80
2022-11-05T22:53:16.975Z,2.30
2022-11-05T22:55:45.348Z,1.98
2022-11-05T22:58:14.068Z,1.98
2022-11-05T23:00:42.638Z,2.00
2022-11-05T23:03:10.885Z,1.88
2022-11-05T23:05:39.266Z,1.38
2022-11-05T23:08:29.399Z,1.90
2022-11-05T23:11:23.278Z,2.08
2022-11-05T23:13:51.518Z,2.00
2022-11-05T23:16:37.277Z,1.50
2022-11-05T23:19:22.646Z,2.58
2022-11-05T23:22:08.233Z,1.60
2022-11-05T23:24:37.836Z,1.92
2022-11-05T23:27:06.115Z,2.83
2022-11-05T23:29:34.544Z,1.67
2022-11-05T23:32:20.728Z,1.98
2022-11-05T23:34:49.051Z,2.10
2022-11-05T23:37:34.996Z,1.95
2022-11-05T23:40:05.708Z,1.30
2022-11-05T23:42:51.935Z,1.30
2022-11-05T23:45:46.927Z,2.58
2022-11-05T23:48:17.881Z,1.55
2022-11-05T23:50:48.873Z,1.40
2022-11-05T23:53:17.635Z,1.50
2022-11-05T23:55:47.242Z,1.08
2022-11-05T23:58:16.210Z,1.00
